createdAt,value
2019-03-26T00:00:32.632Z,0.00
2019-03-26T00:01:32.624Z,0.00
2019-03-26T00:02:32.621Z,0.00
2019-03-26T00:03:32.616Z,0.00
2019-03-26T00:04:32.601Z,0.00
2019-03-26T00:05:32.592Z,0.00
2019-03-26T00:06:32.594Z,0.00
2019-03-26T00:07:32.582Z,0.00
2019-03-26T00:08:32.578Z,0.00
2019-03-26T00:09:32.569Z,0.00
2019-03-26T00:10:32.586Z,0.00
2019-03-26T00:11:32.546Z,0.00
2019-03-26T00:12:32.564Z,0.00
2019-03-26T00:13:32.529Z,0.00
2019-03-26T00:14:32.527Z,0.00
2019-03-26T00:15:32.521Z,0.00
2019-03-26T00:16:32.513Z,0.00
2019-03-26T00:17:32.502Z,0.00
2019-03-26T00:18:32.489Z,0.00
2019-03-26T00:19:32.481Z,0.00
2019-03-26T00:20:32.484Z,0.00
2019-03-26T00:21:32.471Z,0.00
2019-03-26T00:22:32.459Z,0.00
2019-03-26T00:23:32.453Z,0.00
2019-03-26T00:24:32.445Z,0.00
2019-03-26T00:25:32.434Z,0.00
2019-03-26T00:26:32.432Z,0.00
2019-03-26T00:27:32.428Z,0.00
2019-03-26T00:28:32.414Z,0.00
2019-03-26T00:29:32.411Z,0.00
2019-03-26T00:30:32.398Z,0.00
2019-03-26T00:31:32.391Z,0.00
2019-03-26T00:32:32.377Z,0.00
2019-03-26T00:33:36.621Z,0.00
2019-03-26T00:34:32.370Z,0.00
2019-03-26T00:35:32.360Z,0.00
2019-03-26T00:36:32.348Z,0.00
2019-03-26T00:37:32.339Z,0.00
2019-03-26T00:38:32.353Z,0.00
2019-03-26T00:39:32.331Z,0.00
2019-03-26T00:40:32.326Z,0.00
2019-03-26T00:41:32.311Z,0.00
2019-03-26T00:42:32.299Z,0.00
2019-03-26T00:43:32.295Z,0.00
2019-03-26T00:44:32.283Z,0.00
2019-03-26T00:45:32.280Z,0.00
2019-03-26T00:46:32.273Z,0.00
2019-03-26T00:47:32.264Z,0.00
2019-03-26T00:48:32.264Z,0.00
2019-03-26T00:49:32.248Z,0.00
2019-03-26T00:50:32.244Z,0.00
2019-03-26T00:51:32.228Z,0.00
2019-03-26T00:52:32.227Z,0.00
2019-03-26T00:53:32.216Z,0.00
2019-03-26T00:54:32.216Z,0.00
2019-03-26T00:55:32.200Z,0.00
2019-03-26T00:56:32.187Z,0.00
2019-03-26T00:57:32.180Z,0.00
2019-03-26T00:58:32.188Z,0.00
2019-03-26T00:59:32.172Z,0.00
2019-03-26T01:00:32.164Z,0.00
2019-03-26T01:01:32.154Z,0.00
2019-03-26T01:02:32.142Z,0.00
2019-03-26T01:03:32.133Z,0.00
2019-03-26T01:04:33.390Z,0.00
2019-03-26T01:05:32.115Z,0.00
2019-03-26T01:06:32.115Z,0.00
2019-03-26T01:07:32.106Z,0.00
2019-03-26T01:08:32.099Z,0.00
2019-03-26T01:09:32.096Z,0.00
2019-03-26T01:10:32.085Z,0.00
2019-03-26T01:11:32.076Z,0.00
2019-03-26T01:12:32.076Z,0.00
2019-03-26T01:13:32.056Z,0.00
2019-03-26T01:14:32.051Z,0.00
2019-03-26T01:15:32.037Z,0.00
2019-03-26T01:16:32.027Z,0.00
2019-03-26T01:17:32.019Z,0.00
2019-03-26T01:18:32.024Z,0.00
2019-03-26T01:19:32.018Z,0.00
2019-03-26T01:20:32.003Z,0.00
2019-03-26T01:21:31.993Z,0.00
2019-03-26T01:22:31.980Z,0.00
2019-03-26T01:23:31.971Z,0.00
2019-03-26T01:24:31.976Z,0.00
2019-03-26T01:25:31.966Z,0.00
2019-03-26T01:26:31.956Z,0.00
2019-03-26T01:27:31.941Z,0.00
2019-03-26T01:28:31.931Z,0.00
2019-03-26T01:29:31.944Z,0.00
2019-03-26T01:30:31.921Z,0.00
2019-03-26T01:31:31.922Z,0.00
2019-03-26T01:32:31.905Z,0.00
2019-03-26T01:33:31.902Z,0.00
2019-03-26T01:34:45.201Z,0.00
2019-03-26T01:35:31.877Z,0.00
2019-03-26T01:36:31.868Z,0.00
2019-03-26T01:37:31.863Z,0.00
2019-03-26T01:38:31.860Z,0.00
2019-03-26T01:39:31.851Z,0.00
2019-03-26T01:40:31.840Z,0.00
2019-03-26T01:41:31.828Z,0.00
2019-03-26T01:42:31.832Z,0.00
2019-03-26T01:43:31.819Z,0.00
2019-03-26T01:44:31.810Z,0.00
2019-03-26T01:45:31.802Z,0.00
2019-03-26T01:46:31.789Z,0.00
2019-03-26T01:47:31.791Z,0.00
2019-03-26T01:48:31.773Z,0.00
2019-03-26T01:49:31.766Z,0.00
2019-03-26T01:50:31.761Z,0.00
2019-03-26T01:51:31.773Z,0.00
2019-03-26T01:52:31.749Z,0.00
2019-03-26T01:53:31.737Z,0.00
2019-03-26T01:54:31.739Z,0.00
2019-03-26T01:55:31.723Z,0.00
2019-03-26T01:56:31.710Z,0.00
2019-03-26T01:57:31.710Z,0.00
2019-03-26T01:58:31.700Z,0.00
2019-03-26T01:59:31.684Z,0.00
2019-03-26T02:00:31.673Z,0.00
2019-03-26T02:01:31.669Z,0.00
2019-03-26T02:02:31.664Z,0.00
2019-03-26T02:03:31.657Z,0.00
2019-03-26T02:04:31.650Z,0.00
2019-03-26T02:05:31.639Z,0.00
2019-03-26T02:06:31.634Z,0.00
2019-03-26T02:07:31.617Z,0.00
2019-03-26T02:08:31.659Z,0.00
2019-03-26T02:09:31.601Z,0.00
2019-03-26T02:10:31.600Z,0.00
2019-03-26T02:11:31.590Z,0.00
2019-03-26T02:12:31.577Z,0.00
2019-03-26T02:13:31.575Z,0.00
2019-03-26T02:14:31.569Z,0.00
2019-03-26T02:15:31.559Z,0.00
2019-03-26T02:16:31.558Z,0.00
2019-03-26T02:17:31.566Z,0.00
2019-03-26T02:18:31.533Z,0.00
2019-03-26T02:19:31.522Z,0.00
2019-03-26T02:20:31.513Z,0.00
2019-03-26T02:21:31.504Z,0.00
2019-03-26T02:22:31.501Z,0.00
2019-03-26T02:23:31.497Z,0.00
2019-03-26T02:24:31.487Z,0.00
2019-03-26T02:25:31.480Z,0.00
2019-03-26T02:26:31.494Z,0.00
2019-03-26T02:27:31.458Z,0.00
2019-03-26T02:28:31.452Z,0.00
2019-03-26T02:29:31.445Z,0.00
2019-03-26T02:30:31.435Z,0.00
2019-03-26T02:31:31.426Z,0.00
2019-03-26T02:32:31.416Z,0.00
2019-03-26T02:33:31.415Z,0.00
2019-03-26T02:34:31.405Z,0.00
2019-03-26T02:35:31.405Z,0.00
2019-03-26T02:36:31.394Z,0.00
2019-03-26T02:37:31.389Z,0.00
2019-03-26T02:38:31.373Z,0.00
2019-03-26T02:39:31.367Z,0.00
2019-03-26T02:40:31.359Z,0.00
2019-03-26T02:41:31.345Z,0.00
2019-03-26T02:42:31.344Z,0.00
2019-03-26T02:43:31.331Z,0.00
2019-03-26T02:44:31.318Z,0.00
2019-03-26T02:45:31.317Z,0.00
2019-03-26T02:46:31.306Z,0.00
2019-03-26T02:47:31.301Z,0.00
2019-03-26T02:48:31.295Z,0.00
2019-03-26T02:49:31.295Z,0.00
2019-03-26T02:50:31.274Z,0.00
2019-03-26T02:51:31.266Z,0.00
2019-03-26T02:52:31.368Z,0.00
2019-03-26T02:53:31.259Z,0.00
2019-03-26T02:54:31.326Z,0.00
2019-03-26T02:55:31.233Z,0.00
2019-03-26T02:56:31.226Z,0.00
2019-03-26T02:57:31.220Z,0.00
2019-03-26T02:58:31.225Z,0.00
2019-03-26T02:59:31.203Z,0.00
2019-03-26T03:00:31.198Z,0.00
2019-03-26T03:01:31.181Z,0.00
2019-03-26T03:02:31.183Z,0.00
2019-03-26T03:03:31.178Z,0.00
2019-03-26T03:04:31.169Z,0.00
2019-03-26T03:05:35.737Z,0.00
2019-03-26T03:06:31.149Z,0.00
2019-03-26T03:07:31.131Z,0.00
2019-03-26T03:08:31.125Z,0.00
2019-03-26T03:09:31.117Z,0.00
2019-03-26T03:10:31.116Z,0.00
2019-03-26T03:11:31.115Z,0.00
2019-03-26T03:12:31.112Z,0.00
2019-03-26T03:13:31.088Z,0.00
2019-03-26T03:14:31.085Z,0.00
2019-03-26T03:15:31.064Z,0.00
2019-03-26T03:16:31.073Z,0.00
2019-03-26T03:17:31.056Z,0.00
2019-03-26T03:18:31.045Z,0.00
2019-03-26T03:19:31.039Z,0.00
2019-03-26T03:20:31.025Z,0.00
2019-03-26T03:21:31.017Z,0.00
2019-03-26T03:22:31.062Z,0.00
2019-03-26T03:23:31.008Z,0.00
2019-03-26T03:24:31.000Z,0.00
2019-03-26T03:25:30.992Z,0.00
2019-03-26T03:26:31.058Z,0.00
2019-03-26T03:27:30.968Z,0.00
2019-03-26T03:28:30.959Z,0.00
2019-03-26T03:29:30.956Z,0.00
2019-03-26T03:30:30.949Z,0.00
2019-03-26T03:31:30.952Z,0.00
2019-03-26T03:32:31.050Z,0.00
2019-03-26T03:33:30.924Z,0.00
2019-03-26T03:34:30.967Z,0.00
2019-03-26T03:35:30.907Z,0.00
2019-03-26T03:36:30.900Z,0.00
2019-03-26T03:37:30.892Z,0.00
2019-03-26T03:38:30.883Z,0.00
2019-03-26T03:39:30.877Z,0.00
2019-03-26T03:40:30.869Z,0.00
2019-03-26T03:41:30.862Z,0.00
2019-03-26T03:42:30.855Z,0.00
2019-03-26T03:43:30.845Z,0.00
2019-03-26T03:44:30.839Z,0.00
2019-03-26T03:45:30.828Z,0.00
2019-03-26T03:46:30.818Z,0.00
2019-03-26T03:47:30.806Z,0.00
2019-03-26T03:48:30.952Z,0.00
2019-03-26T03:49:30.793Z,0.00
2019-03-26T03:50:30.819Z,0.00
2019-03-26T03:51:30.777Z,0.00
2019-03-26T03:52:30.762Z,0.00
2019-03-26T03:53:30.765Z,0.00
2019-03-26T03:54:30.756Z,0.00
2019-03-26T03:55:30.746Z,0.00
2019-03-26T03:56:30.735Z,0.00
2019-03-26T03:57:30.727Z,0.00
2019-03-26T03:58:30.715Z,0.00
2019-03-26T03:59:30.712Z,0.00
2019-03-26T04:00:30.697Z,0.00
2019-03-26T04:01:30.705Z,0.00
2019-03-26T04:02:30.689Z,0.00
2019-03-26T04:03:30.682Z,0.00
2019-03-26T04:04:30.676Z,0.00
2019-03-26T04:05:30.661Z,0.00
2019-03-26T04:06:30.656Z,0.00
2019-03-26T04:07:30.648Z,0.00
2019-03-26T04:08:30.640Z,0.00
2019-03-26T04:09:30.629Z,0.00
2019-03-26T04:10:30.617Z,0.00
2019-03-26T04:11:30.608Z,0.00
2019-03-26T04:12:30.601Z,0.00
2019-03-26T04:13:30.593Z,0.00
2019-03-26T04:14:30.588Z,0.00
2019-03-26T04:15:34.604Z,0.00
2019-03-26T04:16:30.571Z,0.00
2019-03-26T04:17:30.562Z,0.00
2019-03-26T04:18:30.551Z,0.00
2019-03-26T04:19:30.549Z,0.00
2019-03-26T04:20:30.541Z,0.00
2019-03-26T04:21:30.531Z,0.00
2019-03-26T04:22:30.518Z,0.00
2019-03-26T04:23:30.512Z,0.00
2019-03-26T04:24:30.501Z,0.00
2019-03-26T04:25:30.512Z,0.00
2019-03-26T04:26:30.490Z,0.00
2019-03-26T04:27:30.486Z,0.00
2019-03-26T04:28:30.473Z,0.00
2019-03-26T04:29:30.486Z,0.00
2019-03-26T04:30:30.452Z,0.00
2019-03-26T04:31:30.452Z,0.00
2019-03-26T04:32:30.437Z,0.00
2019-03-26T04:33:30.436Z,0.00
2019-03-26T04:34:30.438Z,0.00
2019-03-26T04:35:30.421Z,0.00
2019-03-26T04:36:30.406Z,0.00
2019-03-26T04:37:30.396Z,0.00
2019-03-26T04:38:30.410Z,0.00
2019-03-26T04:39:30.384Z,4.00
2019-03-26T04:40:30.385Z,4.00
2019-03-26T04:41:30.369Z,0.00
2019-03-26T04:42:30.352Z,4.00
2019-03-26T04:43:30.347Z,4.00
2019-03-26T04:44:30.336Z,4.00
2019-03-26T04:45:30.328Z,4.00
2019-03-26T04:46:30.328Z,4.00
2019-03-26T04:47:30.316Z,8.00
2019-03-26T04:48:30.312Z,8.00
2019-03-26T04:49:30.302Z,8.00
2019-03-26T04:50:30.291Z,8.00
2019-03-26T04:51:30.280Z,12.00
2019-03-26T04:52:30.274Z,12.00
2019-03-26T04:53:30.268Z,12.00
2019-03-26T04:54:30.254Z,16.00
2019-03-26T04:55:30.245Z,12.00
2019-03-26T04:56:30.240Z,12.00
2019-03-26T04:57:30.227Z,12.00
2019-03-26T04:58:30.225Z,16.00
2019-03-26T04:59:30.218Z,16.00
2019-03-26T05:00:30.212Z,16.00
2019-03-26T05:01:30.201Z,20.00
2019-03-26T05:02:30.186Z,20.00
2019-03-26T05:03:30.178Z,20.00
2019-03-26T05:04:30.173Z,20.00
2019-03-26T05:05:30.175Z,20.00
2019-03-26T05:06:37.840Z,24.00
2019-03-26T05:07:30.157Z,24.00
2019-03-26T05:08:30.140Z,24.00
2019-03-26T05:09:30.129Z,28.00
2019-03-26T05:10:30.127Z,24.00
2019-03-26T05:11:30.122Z,28.00
2019-03-26T05:12:30.109Z,32.00
2019-03-26T05:13:30.104Z,28.00
2019-03-26T05:14:30.089Z,32.00
2019-03-26T05:15:30.087Z,36.00
2019-03-26T05:16:30.072Z,32.00
2019-03-26T05:17:30.063Z,32.00
2019-03-26T05:18:30.063Z,32.00
2019-03-26T05:19:30.060Z,28.00
2019-03-26T05:20:30.046Z,24.00
2019-03-26T05:21:30.036Z,28.00
2019-03-26T05:22:30.024Z,32.00
2019-03-26T05:23:30.014Z,36.00
2019-03-26T05:24:30.015Z,32.00
2019-03-26T05:25:30.011Z,32.00
2019-03-26T05:26:29.989Z,36.00
2019-03-26T05:27:29.985Z,32.00
2019-03-26T05:28:29.980Z,32.00
2019-03-26T05:29:29.971Z,32.00
2019-03-26T05:30:32.945Z,40.00
2019-03-26T05:31:30.099Z,40.00
2019-03-26T05:32:29.945Z,40.00
2019-03-26T05:33:29.938Z,40.00
2019-03-26T05:34:29.929Z,36.00
2019-03-26T05:35:29.917Z,32.00
2019-03-26T05:36:29.914Z,36.00
2019-03-26T05:37:29.902Z,36.00
2019-03-26T05:38:29.898Z,36.00
2019-03-26T05:39:29.891Z,36.00
2019-03-26T05:40:29.876Z,32.00
2019-03-26T05:41:29.894Z,36.00
2019-03-26T05:42:29.869Z,36.00
2019-03-26T05:43:29.858Z,36.00
2019-03-26T05:44:29.858Z,36.00
2019-03-26T05:45:29.846Z,32.00
2019-03-26T05:46:29.833Z,36.00
2019-03-26T05:47:29.825Z,40.00
2019-03-26T05:48:29.821Z,40.00
2019-03-26T05:49:29.806Z,40.00
2019-03-26T05:50:29.803Z,44.00
2019-03-26T05:51:29.794Z,40.00
2019-03-26T05:52:29.786Z,40.00
2019-03-26T05:53:29.787Z,40.00
2019-03-26T05:54:29.764Z,36.00
2019-03-26T05:55:29.758Z,40.00
2019-03-26T05:56:30.648Z,40.00
2019-03-26T05:57:29.761Z,44.00
2019-03-26T05:58:29.736Z,48.00
2019-03-26T05:59:29.729Z,56.00
2019-03-26T06:00:29.718Z,44.00
2019-03-26T06:01:29.717Z,48.00
2019-03-26T06:02:29.712Z,56.00
2019-03-26T06:03:29.701Z,64.00
2019-03-26T06:04:29.716Z,100.00
2019-03-26T06:05:29.689Z,96.00
2019-03-26T06:06:29.672Z,100.00
2019-03-26T06:07:31.318Z,92.00
2019-03-26T06:08:29.655Z,104.00
2019-03-26T06:09:29.652Z,100.00
2019-03-26T06:10:29.644Z,108.00
2019-03-26T06:11:29.643Z,116.00
2019-03-26T06:12:29.622Z,112.00
2019-03-26T06:13:29.621Z,104.00
2019-03-26T06:14:29.617Z,104.00
2019-03-26T06:15:29.610Z,88.00
2019-03-26T06:16:38.417Z,88.00
2019-03-26T06:17:29.587Z,84.00
2019-03-26T06:18:29.574Z,100.00
2019-03-26T06:19:29.570Z,92.00
2019-03-26T06:20:29.589Z,104.00
2019-03-26T06:21:29.562Z,92.00
2019-03-26T06:22:29.590Z,120.00
2019-03-26T06:23:29.541Z,188.00
2019-03-26T06:24:29.531Z,172.00
2019-03-26T06:25:29.522Z,200.00
2019-03-26T06:26:29.509Z,184.00
2019-03-26T06:27:29.505Z,228.00
2019-03-26T06:28:29.506Z,296.00
2019-03-26T06:29:29.492Z,280.00
2019-03-26T06:30:29.488Z,324.00
2019-03-26T06:31:29.470Z,420.00
2019-03-26T06:32:29.461Z,384.00
2019-03-26T06:33:29.454Z,368.00
2019-03-26T06:34:29.453Z,384.00
2019-03-26T06:35:29.445Z,396.00
2019-03-26T06:36:29.435Z,400.00
2019-03-26T06:37:29.426Z,352.00
2019-03-26T06:38:29.415Z,352.00
2019-03-26T06:39:29.407Z,416.00
2019-03-26T06:40:29.411Z,372.00
2019-03-26T06:41:29.389Z,308.00
2019-03-26T06:42:29.387Z,320.00
2019-03-26T06:43:29.378Z,344.00
2019-03-26T06:44:29.415Z,308.00
2019-03-26T06:45:29.357Z,364.00
2019-03-26T06:46:29.351Z,276.00
2019-03-26T06:47:29.345Z,248.00
2019-03-26T06:48:29.345Z,224.00
2019-03-26T06:49:29.367Z,244.00
2019-03-26T06:50:29.316Z,276.00
2019-03-26T06:51:29.306Z,332.00
2019-03-26T06:52:29.301Z,324.00
2019-03-26T06:53:29.292Z,360.00
2019-03-26T06:54:29.295Z,376.00
2019-03-26T06:55:29.282Z,368.00
2019-03-26T06:56:29.276Z,348.00
2019-03-26T06:57:35.430Z,356.00
2019-03-26T06:58:29.255Z,440.00
2019-03-26T06:59:29.249Z,396.00
2019-03-26T07:00:29.243Z,336.00
2019-03-26T07:01:29.306Z,336.00
2019-03-26T07:02:29.261Z,328.00
2019-03-26T07:03:29.218Z,316.00
2019-03-26T07:04:29.222Z,356.00
2019-03-26T07:05:29.202Z,344.00
2019-03-26T07:06:29.238Z,420.00
2019-03-26T07:07:31.808Z,464.00
2019-03-26T07:08:29.214Z,460.00
2019-03-26T07:09:29.176Z,472.00
2019-03-26T07:10:29.164Z,412.00
2019-03-26T07:11:29.154Z,436.00
2019-03-26T07:12:29.145Z,320.00
2019-03-26T07:13:29.138Z,344.00
2019-03-26T07:14:29.137Z,360.00
2019-03-26T07:15:29.129Z,352.00
2019-03-26T07:16:29.116Z,284.00
2019-03-26T07:17:29.408Z,344.00
2019-03-26T07:18:29.114Z,356.00
2019-03-26T07:19:29.098Z,340.00
2019-03-26T07:20:29.094Z,296.00
2019-03-26T07:21:29.083Z,296.00
2019-03-26T07:22:29.072Z,332.00
2019-03-26T07:23:29.066Z,268.00
2019-03-26T07:24:29.077Z,340.00
2019-03-26T07:25:29.048Z,380.00
2019-03-26T07:26:29.044Z,308.00
2019-03-26T07:27:29.038Z,336.00
2019-03-26T07:28:29.029Z,260.00
2019-03-26T07:29:29.024Z,276.00
2019-03-26T07:30:29.011Z,256.00
2019-03-26T07:31:29.003Z,280.00
2019-03-26T07:32:29.002Z,312.00
2019-03-26T07:33:28.996Z,376.00
2019-03-26T07:34:28.981Z,484.00
2019-03-26T07:35:28.973Z,528.00
2019-03-26T07:36:28.965Z,648.00
2019-03-26T07:37:28.960Z,700.00
2019-03-26T07:38:28.962Z,704.00
2019-03-26T07:39:28.953Z,564.00
2019-03-26T07:40:28.948Z,628.00
2019-03-26T07:41:28.939Z,708.00
2019-03-26T07:42:28.926Z,628.00
2019-03-26T07:43:28.914Z,540.00
2019-03-26T07:44:28.907Z,464.00
2019-03-26T07:45:28.900Z,548.00
2019-03-26T07:46:28.897Z,700.00
2019-03-26T07:47:28.890Z,768.00
2019-03-26T07:48:28.874Z,872.00
2019-03-26T07:49:28.869Z,1052.00
2019-03-26T07:50:28.874Z,812.00
2019-03-26T07:51:28.872Z,640.00
2019-03-26T07:52:28.852Z,644.00
2019-03-26T07:53:28.845Z,544.00
2019-03-26T07:54:28.862Z,584.00
2019-03-26T07:55:28.829Z,668.00
2019-03-26T07:56:28.821Z,676.00
2019-03-26T07:57:28.833Z,556.00
2019-03-26T07:58:28.810Z,540.00
2019-03-26T07:59:28.804Z,592.00
2019-03-26T08:00:28.799Z,728.00
2019-03-26T08:01:28.792Z,780.00
2019-03-26T08:02:28.775Z,708.00
2019-03-26T08:03:28.770Z,640.00
2019-03-26T08:04:28.771Z,648.00
2019-03-26T08:05:29.925Z,692.00
2019-03-26T08:06:28.751Z,608.00
2019-03-26T08:07:28.741Z,588.00
2019-03-26T08:08:28.733Z,572.00
2019-03-26T08:09:31.617Z,592.00
2019-03-26T08:10:28.723Z,692.00
2019-03-26T08:11:28.716Z,700.00
2019-03-26T08:12:28.706Z,784.00
2019-03-26T08:13:28.719Z,760.00
2019-03-26T08:14:28.725Z,692.00
2019-03-26T08:15:28.682Z,724.00
2019-03-26T08:16:28.758Z,684.00
2019-03-26T08:17:28.666Z,728.00
2019-03-26T08:18:28.671Z,720.00
2019-03-26T08:19:28.659Z,668.00
2019-03-26T08:20:28.645Z,660.00
2019-03-26T08:21:28.641Z,684.00
2019-03-26T08:22:28.637Z,640.00
2019-03-26T08:23:28.638Z,652.00
2019-03-26T08:24:28.623Z,592.00
2019-03-26T08:25:28.618Z,492.00
2019-03-26T08:26:28.601Z,456.00
2019-03-26T08:27:28.597Z,484.00
2019-03-26T08:28:28.589Z,480.00
2019-03-26T08:29:28.586Z,580.00
2019-03-26T08:30:28.579Z,780.00
2019-03-26T08:31:28.573Z,764.00
2019-03-26T08:32:28.564Z,624.00
2019-03-26T08:33:28.564Z,684.00
2019-03-26T08:34:28.548Z,956.00
2019-03-26T08:35:28.541Z,1012.00
2019-03-26T08:36:28.537Z,952.00
2019-03-26T08:37:28.529Z,964.00
2019-03-26T08:38:28.525Z,1052.00
2019-03-26T08:39:28.512Z,928.00
2019-03-26T08:40:28.505Z,828.00
2019-03-26T08:41:28.496Z,840.00
2019-03-26T08:42:28.499Z,736.00
2019-03-26T08:43:28.487Z,716.00
2019-03-26T08:44:28.481Z,648.00
2019-03-26T08:45:28.476Z,544.00
2019-03-26T08:46:28.462Z,544.00
2019-03-26T08:47:28.455Z,484.00
2019-03-26T08:48:28.450Z,564.00
2019-03-26T08:49:30.884Z,616.00
2019-03-26T08:50:28.441Z,572.00
2019-03-26T08:51:28.433Z,480.00
2019-03-26T08:52:28.420Z,444.00
2019-03-26T08:53:28.419Z,476.00
2019-03-26T08:54:28.414Z,576.00
2019-03-26T08:55:28.405Z,732.00
2019-03-26T08:56:28.396Z,840.00
2019-03-26T08:57:28.461Z,864.00
2019-03-26T08:58:28.379Z,808.00
2019-03-26T08:59:28.374Z,796.00
2019-03-26T09:00:28.364Z,784.00
2019-03-26T09:01:28.357Z,804.00
2019-03-26T09:02:28.361Z,816.00
2019-03-26T09:03:28.357Z,880.00
2019-03-26T09:04:28.343Z,960.00
2019-03-26T09:05:28.336Z,984.00
2019-03-26T09:06:28.324Z,960.00
2019-03-26T09:07:28.317Z,972.00
2019-03-26T09:08:28.321Z,936.00
2019-03-26T09:09:28.312Z,944.00
2019-03-26T09:10:28.301Z,1044.00
2019-03-26T09:11:28.292Z,820.00
2019-03-26T09:12:28.281Z,644.00
2019-03-26T09:13:28.275Z,624.00
2019-03-26T09:14:28.273Z,644.00
2019-03-26T09:15:28.266Z,744.00
2019-03-26T09:16:28.260Z,780.00
2019-03-26T09:17:28.257Z,724.00
2019-03-26T09:18:28.240Z,644.00
2019-03-26T09:19:28.235Z,740.00
2019-03-26T09:20:28.225Z,656.00
2019-03-26T09:21:28.219Z,524.00
2019-03-26T09:22:28.222Z,412.00
2019-03-26T09:23:28.213Z,396.00
2019-03-26T09:24:28.204Z,380.00
2019-03-26T09:25:28.194Z,488.00
2019-03-26T09:26:28.192Z,528.00
2019-03-26T09:27:28.184Z,544.00
2019-03-26T09:28:28.179Z,840.00
2019-03-26T09:29:28.172Z,920.00
2019-03-26T09:30:28.160Z,944.00
2019-03-26T09:31:28.153Z,972.00
2019-03-26T09:32:28.148Z,972.00
2019-03-26T09:33:28.166Z,992.00
2019-03-26T09:34:28.143Z,1024.00
2019-03-26T09:35:28.131Z,1052.00
2019-03-26T09:36:28.126Z,1056.00
2019-03-26T09:37:28.119Z,1032.00
2019-03-26T09:38:38.218Z,1032.00
2019-03-26T09:39:28.100Z,1024.00
2019-03-26T09:40:28.099Z,984.00
2019-03-26T09:41:28.092Z,900.00
2019-03-26T09:42:28.082Z,916.00
2019-03-26T09:43:28.071Z,928.00
2019-03-26T09:44:30.301Z,888.00
2019-03-26T09:45:29.382Z,888.00
2019-03-26T09:46:29.183Z,972.00
2019-03-26T09:47:28.053Z,924.00
2019-03-26T09:48:28.044Z,952.00
2019-03-26T09:49:28.038Z,1048.00
2019-03-26T09:50:28.027Z,1036.00
2019-03-26T09:51:28.019Z,1008.00
2019-03-26T09:52:28.011Z,976.00
2019-03-26T09:53:28.007Z,836.00
2019-03-26T09:54:28.004Z,764.00
2019-03-26T09:55:28.003Z,684.00
2019-03-26T09:56:31.972Z,764.00
2019-03-26T09:57:27.986Z,872.00
2019-03-26T09:58:27.988Z,980.00
2019-03-26T09:59:27.974Z,1096.00
2019-03-26T10:00:27.991Z,904.00
2019-03-26T10:01:27.956Z,904.00
2019-03-26T10:02:27.952Z,932.00
2019-03-26T10:03:27.948Z,1016.00
2019-03-26T10:04:27.932Z,1032.00
2019-03-26T10:05:27.927Z,988.00
2019-03-26T10:06:27.927Z,936.00
2019-03-26T10:07:27.920Z,1112.00
2019-03-26T10:08:27.910Z,1204.00
2019-03-26T10:09:27.905Z,944.00
2019-03-26T10:10:27.896Z,844.00
2019-03-26T10:11:27.887Z,720.00
2019-03-26T10:12:27.886Z,828.00
2019-03-26T10:13:27.885Z,948.00
2019-03-26T10:14:27.866Z,1188.00
2019-03-26T10:15:27.892Z,1288.00
2019-03-26T10:16:27.853Z,1224.00
2019-03-26T10:17:27.846Z,1140.00
2019-03-26T10:18:27.846Z,1224.00
2019-03-26T10:19:27.840Z,1300.00
2019-03-26T10:20:27.833Z,1264.00
2019-03-26T10:21:27.942Z,1008.00
2019-03-26T10:22:27.813Z,776.00
2019-03-26T10:23:27.807Z,712.00
2019-03-26T10:24:27.799Z,756.00
2019-03-26T10:25:27.802Z,476.00
2019-03-26T10:26:27.797Z,540.00
2019-03-26T10:27:27.800Z,768.00
2019-03-26T10:28:27.775Z,640.00
2019-03-26T10:29:30.467Z,716.00
2019-03-26T10:30:27.766Z,464.00
2019-03-26T10:31:27.760Z,524.00
2019-03-26T10:32:27.753Z,600.00
2019-03-26T10:33:27.747Z,624.00
2019-03-26T10:34:27.736Z,608.00
2019-03-26T10:35:27.734Z,492.00
2019-03-26T10:36:27.720Z,616.00
2019-03-26T10:37:27.718Z,780.00
2019-03-26T10:38:27.713Z,700.00
2019-03-26T10:39:27.709Z,568.00
2019-03-26T10:40:27.700Z,516.00
2019-03-26T10:41:27.694Z,824.00
2019-03-26T10:42:27.682Z,772.00
2019-03-26T10:43:27.674Z,648.00
2019-03-26T10:44:27.672Z,572.00
2019-03-26T10:45:27.663Z,532.00
2019-03-26T10:46:27.654Z,684.00
2019-03-26T10:47:27.647Z,680.00
2019-03-26T10:48:27.640Z,828.00
2019-03-26T10:49:27.628Z,1028.00
2019-03-26T10:50:27.627Z,816.00
2019-03-26T10:51:27.622Z,1136.00
2019-03-26T10:52:30.758Z,1296.00
2019-03-26T10:53:27.616Z,1112.00
2019-03-26T10:54:27.592Z,996.00
2019-03-26T10:55:27.589Z,1148.00
2019-03-26T10:56:27.574Z,1260.00
2019-03-26T10:57:27.565Z,1324.00
2019-03-26T10:58:27.562Z,1232.00
2019-03-26T10:59:27.557Z,1200.00
2019-03-26T11:00:27.541Z,1264.00
2019-03-26T11:01:27.534Z,1256.00
2019-03-26T11:02:27.535Z,1188.00
2019-03-26T11:03:27.526Z,1116.00
2019-03-26T11:04:27.527Z,920.00
2019-03-26T11:05:27.510Z,996.00
2019-03-26T11:06:27.504Z,1136.00
2019-03-26T11:07:27.660Z,1128.00
2019-03-26T11:08:27.482Z,1124.00
2019-03-26T11:09:27.528Z,964.00
2019-03-26T11:10:27.481Z,812.00
2019-03-26T11:11:27.469Z,956.00
2019-03-26T11:12:27.462Z,896.00
2019-03-26T11:13:27.453Z,676.00
2019-03-26T11:14:27.455Z,524.00
2019-03-26T11:15:27.439Z,644.00
2019-03-26T11:16:27.433Z,696.00
2019-03-26T11:17:27.433Z,572.00
2019-03-26T11:18:27.416Z,460.00
2019-03-26T11:19:27.406Z,448.00
2019-03-26T11:20:27.400Z,664.00
2019-03-26T11:21:27.395Z,668.00
2019-03-26T11:22:27.396Z,536.00
2019-03-26T11:23:27.384Z,504.00
2019-03-26T11:24:27.371Z,500.00
2019-03-26T11:25:27.366Z,576.00
2019-03-26T11:26:27.362Z,820.00
2019-03-26T11:27:27.365Z,1012.00
2019-03-26T11:28:27.353Z,1104.00
2019-03-26T11:29:27.344Z,1124.00
2019-03-26T11:30:27.332Z,1220.00
2019-03-26T11:31:29.943Z,928.00
2019-03-26T11:32:27.324Z,640.00
2019-03-26T11:33:27.312Z,848.00
2019-03-26T11:34:27.302Z,888.00
2019-03-26T11:35:27.297Z,1092.00
2019-03-26T11:36:27.289Z,1312.00
2019-03-26T11:37:27.281Z,1340.00
2019-03-26T11:38:27.285Z,1196.00
2019-03-26T11:39:32.613Z,820.00
2019-03-26T11:40:27.265Z,616.00
2019-03-26T11:41:27.259Z,524.00
2019-03-26T11:42:27.251Z,564.00
2019-03-26T11:43:27.241Z,616.00
2019-03-26T11:44:27.245Z,684.00
2019-03-26T11:45:27.234Z,688.00
2019-03-26T11:46:27.226Z,784.00
2019-03-26T11:47:27.222Z,824.00
2019-03-26T11:48:27.219Z,932.00
2019-03-26T11:49:27.202Z,1096.00
2019-03-26T11:50:27.200Z,1156.00
2019-03-26T11:51:27.190Z,1204.00
2019-03-26T11:52:27.185Z,1168.00
2019-03-26T11:53:27.179Z,1236.00
2019-03-26T11:54:27.169Z,1148.00
2019-03-26T11:55:27.157Z,792.00
2019-03-26T11:56:27.153Z,788.00
2019-03-26T11:57:27.147Z,948.00
2019-03-26T11:58:30.701Z,1044.00
2019-03-26T11:59:27.136Z,856.00
2019-03-26T12:00:27.158Z,824.00
2019-03-26T12:01:27.152Z,804.00
2019-03-26T12:02:27.196Z,696.00
2019-03-26T12:03:27.106Z,644.00
2019-03-26T12:04:27.128Z,632.00
2019-03-26T12:05:27.122Z,668.00
2019-03-26T12:06:27.110Z,632.00
2019-03-26T12:07:27.155Z,532.00
2019-03-26T12:08:27.070Z,528.00
2019-03-26T12:09:27.059Z,588.00
2019-03-26T12:10:27.057Z,656.00
2019-03-26T12:11:27.060Z,428.00
2019-03-26T12:12:27.043Z,344.00
2019-03-26T12:13:27.035Z,352.00
2019-03-26T12:14:27.022Z,384.00
2019-03-26T12:15:27.019Z,320.00
2019-03-26T12:16:27.009Z,420.00
2019-03-26T12:17:27.003Z,492.00
2019-03-26T12:18:27.004Z,456.00
2019-03-26T12:19:26.992Z,464.00
2019-03-26T12:20:26.989Z,404.00
2019-03-26T12:21:27.000Z,420.00
2019-03-26T12:22:26.976Z,380.00
2019-03-26T12:23:26.970Z,396.00
2019-03-26T12:24:26.957Z,352.00
2019-03-26T12:25:26.952Z,332.00
2019-03-26T12:26:26.943Z,340.00
2019-03-26T12:27:26.933Z,324.00
2019-03-26T12:28:26.925Z,292.00
2019-03-26T12:29:26.926Z,572.00
2019-03-26T12:30:26.914Z,844.00
2019-03-26T12:31:26.997Z,900.00
2019-03-26T12:32:26.902Z,984.00
2019-03-26T12:33:26.895Z,824.00
2019-03-26T12:34:26.880Z,668.00
2019-03-26T12:35:26.874Z,664.00
2019-03-26T12:36:39.346Z,540.00
2019-03-26T12:37:26.866Z,484.00
2019-03-26T12:38:26.853Z,500.00
2019-03-26T12:39:26.852Z,456.00
2019-03-26T12:40:26.838Z,480.00
2019-03-26T12:41:26.831Z,688.00
2019-03-26T12:42:26.831Z,968.00
2019-03-26T12:43:26.825Z,1108.00
2019-03-26T12:44:26.819Z,1132.00
2019-03-26T12:45:26.809Z,1152.00
2019-03-26T12:46:26.952Z,980.00
2019-03-26T12:47:26.795Z,780.00